createdAt,value
2023-04-01T00:01:26.357Z,10.20
2023-04-01T00:03:55.070Z,10.20
2023-04-01T00:06:22.827Z,10.20
2023-04-01T00:08:50.647Z,10.20
2023-04-01T00:11:18.094Z,10.20
2023-04-01T00:13:48.097Z,10.20
2023-04-01T00:16:21.809Z,10.30
2023-04-01T00:18:51.090Z,10.30
2023-04-01T00:21:19.214Z,10.30
2023-04-01T00:23:46.528Z,10.20
2023-04-01T00:26:15.247Z,10.20
2023-04-01T00:28:42.798Z,10.20
2023-04-01T00:31:10.718Z,10.20
2023-04-01T00:33:38.877Z,10.20
2023-04-01T00:36:10.903Z,10.20
2023-04-01T00:38:38.606Z,10.20
2023-04-01T00:41:06.173Z,10.20
2023-04-01T00:43:33.793Z,10.20
2023-04-01T00:46:01.155Z,10.20
2023-04-01T00:48:34.275Z,10.20
2023-04-01T00:51:12.692Z,10.20
2023-04-01T00:53:42.773Z,10.20
2023-04-01T00:56:14.678Z,10.20
2023-04-01T00:58:47.507Z,10.10
2023-04-01T01:01:15.033Z,10.10
2023-04-01T01:03:42.315Z,10.00
2023-04-01T01:06:12.529Z,10.00
2023-04-01T01:08:39.885Z,9.90
2023-04-01T01:11:08.475Z,9.90
2023-04-01T01:13:39.725Z,9.80
2023-04-01T01:16:19.245Z,9.80
2023-04-01T01:19:10.503Z,9.80
2023-04-01T01:21:46.726Z,9.80
2023-04-01T01:24:26.228Z,9.70
2023-04-01T01:27:03.790Z,9.70
2023-04-01T01:29:37.097Z,9.70
2023-04-01T01:32:08.312Z,9.70
2023-04-01T01:34:46.395Z,9.70
2023-04-01T01:37:16.032Z,9.60
2023-04-01T01:39:45.304Z,9.60
2023-04-01T01:42:14.247Z,9.70
2023-04-01T01:44:43.080Z,9.70
2023-04-01T01:47:10.889Z,9.60
2023-04-01T01:49:40.014Z,9.60
2023-04-01T01:52:07.322Z,9.70
2023-04-01T01:54:34.614Z,9.60
2023-04-01T01:57:10.358Z,9.60
2023-04-01T01:59:39.386Z,9.60
2023-04-01T02:02:09.078Z,9.60
2023-04-01T02:04:38.280Z,9.60
2023-04-01T02:07:08.273Z,9.60
2023-04-01T02:09:36.148Z,9.50
2023-04-01T02:12:10.536Z,9.50
2023-04-01T02:14:42.738Z,9.60
2023-04-01T02:17:12.041Z,9.50
2023-04-01T02:19:41.785Z,9.60
2023-04-01T02:22:12.513Z,9.50
2023-04-01T02:24:41.081Z,9.60
2023-04-01T02:27:09.860Z,9.50
2023-04-01T02:29:37.243Z,9.60
2023-04-01T02:32:05.354Z,9.60
2023-04-01T02:34:33.649Z,9.60
2023-04-01T02:37:01.340Z,9.60
2023-04-01T02:39:28.787Z,9.60
2023-04-01T02:41:56.115Z,9.60
2023-04-01T02:44:23.506Z,9.60
2023-04-01T02:46:50.887Z,9.60
2023-04-01T02:49:18.186Z,9.60
2023-04-01T02:51:45.655Z,9.50
2023-04-01T02:54:12.904Z,9.50
2023-04-01T02:56:40.155Z,9.50
2023-04-01T02:59:07.466Z,9.50
2023-04-01T03:01:34.788Z,9.50
2023-04-01T03:04:02.102Z,9.50
2023-04-01T03:06:29.352Z,9.50
2023-04-01T03:08:56.688Z,9.50
2023-04-01T03:11:23.961Z,9.50
2023-04-01T03:13:51.898Z,9.40
2023-04-01T03:16:19.241Z,9.40
2023-04-01T03:18:46.575Z,9.40
2023-04-01T03:21:15.523Z,9.40
2023-04-01T03:23:42.860Z,9.40
2023-04-01T03:26:10.132Z,9.40
2023-04-01T03:28:37.500Z,9.40
2023-04-01T03:31:05.026Z,9.40
2023-04-01T03:33:32.496Z,9.40
2023-04-01T03:35:59.837Z,9.40
2023-04-01T03:38:27.460Z,9.40
2023-04-01T03:40:54.895Z,9.30
2023-04-01T03:43:22.583Z,9.40
2023-04-01T03:45:50.780Z,9.40
2023-04-01T03:48:18.360Z,9.30
2023-04-01T03:50:45.784Z,9.30
2023-04-01T03:53:13.412Z,9.30
2023-04-01T03:55:40.678Z,9.30
2023-04-01T03:58:08.333Z,9.20
2023-04-01T04:00:35.842Z,9.20
2023-04-01T04:03:03.432Z,9.20
2023-04-01T04:05:30.895Z,9.20
2023-04-01T04:07:58.292Z,9.20
2023-04-01T04:10:26.088Z,9.20
2023-04-01T04:12:53.445Z,9.20
2023-04-01T04:15:20.875Z,9.20
2023-04-01T04:17:48.322Z,9.20
2023-04-01T04:20:15.791Z,9.20
2023-04-01T04:22:43.109Z,9.20
2023-04-01T04:25:10.396Z,9.20
2023-04-01T04:27:37.749Z,9.20
2023-04-01T04:30:06.490Z,9.30
2023-04-01T04:32:33.787Z,9.20
2023-04-01T04:35:01.103Z,9.30
2023-04-01T04:37:28.435Z,9.30
2023-04-01T04:39:55.997Z,9.30
2023-04-01T04:42:23.291Z,9.30
2023-04-01T04:44:50.654Z,9.30
2023-04-01T04:47:18.165Z,9.30
2023-04-01T04:49:45.510Z,9.30
2023-04-01T04:52:12.780Z,9.30
2023-04-01T04:54:40.008Z,9.30
2023-04-01T04:57:07.344Z,9.30
2023-04-01T04:59:34.676Z,9.20
2023-04-01T05:02:02.242Z,9.20
2023-04-01T05:04:29.534Z,9.20
2023-04-01T05:06:56.805Z,9.20
2023-04-01T05:09:24.300Z,9.20
2023-04-01T05:11:51.546Z,9.20
2023-04-01T05:14:18.858Z,9.20
2023-04-01T05:16:46.211Z,9.20
2023-04-01T05:19:13.528Z,9.20
2023-04-01T05:21:40.817Z,9.20
2023-04-01T05:24:09.334Z,9.20
2023-04-01T05:26:37.706Z,9.20
2023-04-01T05:29:05.565Z,9.10
2023-04-01T05:31:32.881Z,9.10
2023-04-01T05:34:00.212Z,9.10
2023-04-01T05:36:27.476Z,9.10
2023-04-01T05:38:57.659Z,9.10
2023-04-01T05:41:24.965Z,9.10
2023-04-01T05:43:52.215Z,9.10
2023-04-01T05:46:19.540Z,9.10
2023-04-01T05:48:46.883Z,9.10
2023-04-01T05:51:14.837Z,9.10
2023-04-01T05:53:42.487Z,9.10
2023-04-01T05:56:10.552Z,9.10
2023-04-01T05:58:38.404Z,9.10
2023-04-01T06:01:11.597Z,9.10
2023-04-01T06:03:43.574Z,9.10
2023-04-01T06:06:14.710Z,9.00
2023-04-01T06:08:42.058Z,9.10
2023-04-01T06:11:09.281Z,9.10
2023-04-01T06:13:42.541Z,9.00
2023-04-01T06:16:42.292Z,9.10
2023-04-01T06:19:21.693Z,9.00
2023-04-01T06:22:04.095Z,9.00
2023-04-01T06:24:31.427Z,9.00
2023-04-01T06:27:19.703Z,8.90
2023-04-01T06:30:05.763Z,9.00
2023-04-01T06:32:45.238Z,9.00
2023-04-01T06:35:21.980Z,8.90
2023-04-01T06:37:51.954Z,8.90
2023-04-01T06:40:37.296Z,9.00
2023-04-01T06:43:04.621Z,8.90
2023-04-01T06:45:42.830Z,9.00
2023-04-01T06:48:16.470Z,9.00
2023-04-01T06:50:55.545Z,9.00
2023-04-01T06:53:29.890Z,9.00
2023-04-01T06:56:05.561Z,9.00
2023-04-01T06:58:36.814Z,9.00
2023-04-01T07:01:07.234Z,9.10
2023-04-01T07:03:37.399Z,9.10
2023-04-01T07:06:06.503Z,9.00
2023-04-01T07:08:36.552Z,9.10
2023-04-01T07:11:05.662Z,9.10
2023-04-01T07:13:41.850Z,9.00
2023-04-01T07:16:15.719Z,9.00
2023-04-01T07:18:46.636Z,9.10
2023-04-01T07:21:36.678Z,9.10
2023-04-01T07:24:06.773Z,9.00
2023-04-01T07:26:34.050Z,9.10
2023-04-01T07:29:01.427Z,9.00
2023-04-01T07:31:43.597Z,9.00
2023-04-01T07:34:17.188Z,9.00
2023-04-01T07:37:04.760Z,9.10
2023-04-01T07:39:55.814Z,9.10
2023-04-01T07:42:41.740Z,9.00
2023-04-01T07:45:14.946Z,9.00
2023-04-01T07:47:52.189Z,9.10
2023-04-01T07:50:24.220Z,9.00
2023-04-01T07:53:10.245Z,9.10
2023-04-01T07:55:46.301Z,9.10
2023-04-01T07:58:28.511Z,9.10
2023-04-01T08:01:01.584Z,9.10
2023-04-01T08:03:31.762Z,9.10
2023-04-01T08:06:08.390Z,9.10
2023-04-01T08:08:35.676Z,9.10
2023-04-01T08:11:18.162Z,9.10
2023-04-01T08:13:45.489Z,9.10
2023-04-01T08:16:31.581Z,9.00
2023-04-01T08:19:14.261Z,9.10
2023-04-01T08:21:46.185Z,9.10
2023-04-01T08:24:44.491Z,9.10
2023-04-01T08:27:23.746Z,9.20
2023-04-01T08:29:54.150Z,9.20
2023-04-01T08:32:26.763Z,9.30
2023-04-01T08:35:23.468Z,9.30
2023-04-01T08:37:51.335Z,9.30
2023-04-01T08:40:30.742Z,9.30
2023-04-01T08:43:07.083Z,9.30
2023-04-01T08:45:46.634Z,9.30
2023-04-01T08:48:21.780Z,9.30
2023-04-01T08:51:07.541Z,9.30
2023-04-01T08:53:37.659Z,9.40
2023-04-01T08:56:05.068Z,9.40
2023-04-01T08:58:47.269Z,9.40
2023-04-01T09:01:18.616Z,9.50
2023-04-01T09:03:55.660Z,9.50
2023-04-01T09:06:26.573Z,9.60
2023-04-01T09:09:06.103Z,9.60
2023-04-01T09:11:49.108Z,9.60
2023-04-01T09:14:46.825Z,9.60
2023-04-01T09:17:32.646Z,9.60
2023-04-01T09:20:08.851Z,9.50
2023-04-01T09:22:38.977Z,9.50
2023-04-01T09:25:24.840Z,9.50
2023-04-01T09:27:54.847Z,9.50
2023-04-01T09:30:40.751Z,9.50
2023-04-01T09:33:18.056Z,9.50
2023-04-01T09:35:48.572Z,9.50
2023-04-01T09:38:30.649Z,9.50
2023-04-01T09:41:04.055Z,9.50
2023-04-01T09:43:31.318Z,9.50
2023-04-01T09:45:58.679Z,9.50
2023-04-01T09:48:41.356Z,9.50
2023-04-01T09:51:23.820Z,9.40
2023-04-01T09:54:09.699Z,9.50
2023-04-01T09:56:39.809Z,9.40
2023-04-01T09:59:25.833Z,9.30
2023-04-01T10:02:10.401Z,9.40
2023-04-01T10:04:43.606Z,9.30
2023-04-01T10:07:10.845Z,9.40
2023-04-01T10:09:56.990Z,9.40
2023-04-01T10:12:24.483Z,9.40
2023-04-01T10:14:57.653Z,9.40
2023-04-01T10:17:30.786Z,9.40
2023-04-01T10:20:16.609Z,9.50
2023-04-01T10:22:54.061Z,9.40
2023-04-01T10:25:38.749Z,9.40
2023-04-01T10:28:09.057Z,9.40
2023-04-01T10:30:54.971Z,9.40
2023-04-01T10:33:42.452Z,9.40
2023-04-01T10:36:28.137Z,9.50
2023-04-01T10:38:58.138Z,9.50
2023-04-01T10:41:29.575Z,9.50
2023-04-01T10:44:11.118Z,9.50
2023-04-01T10:46:50.513Z,9.60
2023-04-01T10:49:50.228Z,9.50
2023-04-01T10:52:20.399Z,9.60
2023-04-01T10:55:01.126Z,9.60
2023-04-01T10:57:40.288Z,9.60
2023-04-01T11:00:08.257Z,9.50
2023-04-01T11:03:11.303Z,9.50
2023-04-01T11:05:51.555Z,9.50
2023-04-01T11:08:33.918Z,9.50
2023-04-01T11:11:23.887Z,9.40
2023-04-01T11:14:26.808Z,9.50
2023-04-01T11:17:17.460Z,9.50
2023-04-01T11:19:59.744Z,9.70
2023-04-01T11:22:45.726Z,9.80
2023-04-01T11:25:21.564Z,9.80
2023-04-01T11:28:03.922Z,9.80
2023-04-01T11:30:34.495Z,9.90
2023-04-01T11:33:21.026Z,9.90
2023-04-01T11:36:08.657Z,9.90
2023-04-01T11:38:41.943Z,10.10
2023-04-01T11:41:33.645Z,10.20
2023-04-01T11:44:03.896Z,10.20
2023-04-01T11:46:31.170Z,10.40
2023-04-01T11:49:06.902Z,10.50
2023-04-01T11:51:40.751Z,10.60
2023-04-01T11:54:11.019Z,10.60
2023-04-01T11:56:41.288Z,10.60
2023-04-01T11:59:28.182Z,10.70
2023-04-01T12:02:00.726Z,10.70
2023-04-01T12:04:30.825Z,10.70
2023-04-01T12:07:01.136Z,10.60
2023-04-01T12:09:31.719Z,10.50
2023-04-01T12:12:12.091Z,10.50
2023-04-01T12:14:51.769Z,10.50
2023-04-01T12:17:30.247Z,10.60
2023-04-01T12:20:12.812Z,10.60
2023-04-01T12:22:44.833Z,10.70
2023-04-01T12:25:27.340Z,10.70
2023-04-01T12:28:17.553Z,10.70
2023-04-01T12:31:03.603Z,10.70
2023-04-01T12:33:33.630Z,10.70
2023-04-01T12:36:08.643Z,10.70
2023-04-01T12:38:35.966Z,10.70
2023-04-01T12:41:03.235Z,10.70
2023-04-01T12:43:39.796Z,10.70
2023-04-01T12:46:14.338Z,10.60
2023-04-01T12:48:52.931Z,10.50
2023-04-01T12:51:28.912Z,10.40
2023-04-01T12:53:56.193Z,10.40
2023-04-01T12:56:42.189Z,10.50
2023-04-01T12:59:28.594Z,10.50
2023-04-01T13:02:04.000Z,10.50
2023-04-01T13:04:31.237Z,10.50
2023-04-01T13:07:07.686Z,10.60
2023-04-01T13:09:34.928Z,10.60
2023-04-01T13:12:21.310Z,10.70
2023-04-01T13:14:57.910Z,10.70
2023-04-01T13:17:28.031Z,10.70
2023-04-01T13:20:27.485Z,10.70
2023-04-01T13:22:54.736Z,10.70
2023-04-01T13:25:34.024Z,10.70
2023-04-01T13:28:22.446Z,10.80
2023-04-01T13:31:07.861Z,10.90
2023-04-01T13:33:43.865Z,11.10
2023-04-01T13:36:30.133Z,11.20
2023-04-01T13:39:09.874Z,11.40
2023-04-01T13:41:48.934Z,11.50
2023-04-01T13:44:24.108Z,11.50
2023-04-01T13:46:54.603Z,11.50
2023-04-01T13:49:42.191Z,11.40
2023-04-01T13:52:25.564Z,11.20
2023-04-01T13:55:01.064Z,11.10
2023-04-01T13:57:43.118Z,11.10
2023-04-01T14:00:26.694Z,11.20
2023-04-01T14:03:12.537Z,11.20
2023-04-01T14:05:43.437Z,11.10
2023-04-01T14:08:30.028Z,11.10
2023-04-01T14:11:20.363Z,11.10
2023-04-01T14:13:52.879Z,11.10
2023-04-01T14:16:23.293Z,11.00
2023-04-01T14:19:16.757Z,11.00
2023-04-01T14:21:44.120Z,10.80
2023-04-01T14:24:33.522Z,10.80
2023-04-01T14:27:10.248Z,10.80
2023-04-01T14:29:45.997Z,10.70
2023-04-01T14:32:14.025Z,10.60
2023-04-01T14:34:53.675Z,10.70
2023-04-01T14:37:21.075Z,10.70
2023-04-01T14:39:51.337Z,10.70
2023-04-01T14:42:37.538Z,10.70
2023-04-01T14:45:20.320Z,10.70
2023-04-01T14:47:59.987Z,10.70
2023-04-01T14:50:31.557Z,10.70
2023-04-01T14:53:07.834Z,10.70
2023-04-01T14:55:44.091Z,10.70
2023-04-01T14:58:11.389Z,10.70
2023-04-01T15:00:47.680Z,10.70
2023-04-01T15:03:20.055Z,10.70
2023-04-01T15:05:57.237Z,10.60
2023-04-01T15:08:31.103Z,10.60
2023-04-01T15:11:07.378Z,10.50
2023-04-01T15:13:34.618Z,10.50
2023-04-01T15:16:20.511Z,10.50
2023-04-01T15:19:12.065Z,10.50
2023-04-01T15:21:39.328Z,10.50
2023-04-01T15:24:15.756Z,10.50
2023-04-01T15:26:46.023Z,10.50
2023-04-01T15:29:22.162Z,10.40
2023-04-01T15:32:07.853Z,10.30
2023-04-01T15:34:44.276Z,10.30
2023-04-01T15:37:21.655Z,10.20
2023-04-01T15:39:55.758Z,10.20
2023-04-01T15:42:32.914Z,10.20
2023-04-01T15:45:15.483Z,10.10
2023-04-01T15:47:47.413Z,10.20
2023-04-01T15:50:33.597Z,10.10
2023-04-01T15:53:29.925Z,10.00
2023-04-01T15:55:57.133Z,10.10
2023-04-01T15:58:30.405Z,10.10
2023-04-01T16:01:08.494Z,10.10
2023-04-01T16:03:44.110Z,10.10
2023-04-01T16:06:38.048Z,10.10
2023-04-01T16:09:15.353Z,10.00
2023-04-01T16:11:42.785Z,10.00
2023-04-01T16:14:28.615Z,10.00
2023-04-01T16:16:58.607Z,9.90
2023-04-01T16:19:25.843Z,9.90
2023-04-01T16:22:01.964Z,9.90
2023-04-01T16:24:40.006Z,9.90
2023-04-01T16:27:19.191Z,9.90
2023-04-01T16:30:06.812Z,9.90
2023-04-01T16:32:50.267Z,9.90
2023-04-01T16:35:36.410Z,9.90
2023-04-01T16:38:22.253Z,9.90
2023-04-01T16:41:05.769Z,9.90
2023-04-01T16:43:38.537Z,9.80
2023-04-01T16:46:26.228Z,9.80
2023-04-01T16:48:56.363Z,9.80
2023-04-01T16:51:24.685Z,9.80
2023-04-01T16:54:01.571Z,9.70
2023-04-01T16:56:37.242Z,9.80
2023-04-01T16:59:08.596Z,9.80
2023-04-01T17:01:56.470Z,9.80
2023-04-01T17:04:26.533Z,9.80
2023-04-01T17:06:59.176Z,9.80
2023-04-01T17:13:37.068Z,9.80
2023-04-01T17:16:04.392Z,9.90
2023-04-01T17:18:50.642Z,9.90
2023-04-01T17:21:20.080Z,9.90
2023-04-01T17:24:06.324Z,9.90
2023-04-01T17:26:39.523Z,9.90
2023-04-01T17:29:12.874Z,9.90
2023-04-01T17:31:58.622Z,9.90
2023-04-01T17:34:34.890Z,9.90
2023-04-01T17:37:10.428Z,9.90
2023-04-01T17:39:46.325Z,9.90
2023-04-01T17:42:21.129Z,9.90
2023-04-01T17:44:53.990Z,9.90
2023-04-01T17:47:37.477Z,9.90
2023-04-01T17:50:23.470Z,9.90
2023-04-01T17:53:08.953Z,9.90
2023-04-01T17:55:42.257Z,9.90
2023-04-01T17:58:15.468Z,9.90
2023-04-01T18:00:54.297Z,9.90
2023-04-01T18:03:42.388Z,9.90
2023-04-01T18:06:17.631Z,9.90
2023-04-01T18:08:47.657Z,10.00
2023-04-01T18:11:34.333Z,10.00
2023-04-01T18:14:11.753Z,9.90
2023-04-01T18:17:01.081Z,9.90
2023-04-01T18:19:47.242Z,9.90
2023-04-01T18:22:20.370Z,9.90
2023-04-01T18:24:47.757Z,9.90
2023-04-01T18:27:37.521Z,9.90
2023-04-01T18:30:19.983Z,9.90
2023-04-01T18:32:51.193Z,9.90
2023-04-01T18:35:22.462Z,9.90
2023-04-01T18:38:07.195Z,9.90
2023-04-01T18:40:46.944Z,9.80
2023-04-01T18:43:23.100Z,9.80
2023-04-01T18:46:00.960Z,9.80
2023-04-01T18:48:46.902Z,9.80
2023-04-01T18:51:34.453Z,9.80
2023-04-01T18:54:05.317Z,9.70
2023-04-01T18:56:32.667Z,9.70
2023-04-01T18:59:07.095Z,9.70
2023-04-01T19:01:38.294Z,9.60
2023-04-01T19:04:24.801Z,9.60
2023-04-01T19:06:55.846Z,9.50
2023-04-01T19:09:23.203Z,9.50
2023-04-01T19:11:53.603Z,9.50
2023-04-01T19:14:33.660Z,9.40
2023-04-01T19:17:05.482Z,9.40
2023-04-01T19:19:35.988Z,9.40
2023-04-01T19:22:12.756Z,9.30
2023-04-01T19:24:46.994Z,9.30
2023-04-01T19:27:17.297Z,9.30
2023-04-01T19:30:03.778Z,9.30
2023-04-01T19:32:48.410Z,9.30
2023-04-01T19:35:27.757Z,9.30
2023-04-01T19:38:18.089Z,9.30
2023-04-01T19:40:51.519Z,9.30
2023-04-01T19:43:18.767Z,9.20
2023-04-01T19:46:04.503Z,9.20
2023-04-01T19:48:44.140Z,9.10
2023-04-01T19:51:24.296Z,9.10
2023-04-01T19:53:52.660Z,9.00
2023-04-01T19:56:22.605Z,9.00
2023-04-01T19:58:57.096Z,8.90
2023-04-01T20:01:44.206Z,8.90
2023-04-01T20:04:16.012Z,8.90
2023-04-01T20:06:53.340Z,8.90
2023-04-01T20:09:27.202Z,8.90
2023-04-01T20:16:01.090Z,8.80
2023-04-01T20:22:35.848Z,8.70
2023-04-01T20:25:11.382Z,8.80
2023-04-01T20:27:43.080Z,8.80
2023-04-01T20:30:25.864Z,8.80
2023-04-01T20:33:11.398Z,8.70
2023-04-01T20:35:44.418Z,8.70
2023-04-01T20:38:27.332Z,8.70
2023-04-01T20:41:03.187Z,8.60
2023-04-01T20:43:50.747Z,8.60
2023-04-01T20:46:23.730Z,8.70
2023-04-01T20:49:11.692Z,8.70
2023-04-01T20:51:40.157Z,8.70
2023-04-01T20:58:20.937Z,8.70
2023-04-01T21:00:57.566Z,8.70
2023-04-01T21:03:35.419Z,8.70
2023-04-01T21:06:05.419Z,8.70
2023-04-01T21:08:36.464Z,8.70
2023-04-01T21:11:29.899Z,8.60
2023-04-01T21:14:00.149Z,8.60
2023-04-01T21:16:36.306Z,8.60
2023-04-01T21:19:22.351Z,8.50
2023-04-01T21:22:28.282Z,8.50
2023-04-01T21:25:04.840Z,8.60
2023-04-01T21:27:44.208Z,8.50
2023-04-01T21:30:29.915Z,8.50
2023-04-01T21:33:12.135Z,8.50
2023-04-01T21:35:45.618Z,8.60
2023-04-01T21:38:15.981Z,8.60
2023-04-01T21:40:55.632Z,8.60
2023-04-01T21:43:22.844Z,8.60
2023-04-01T21:46:08.446Z,8.60
2023-04-01T21:49:02.408Z,8.60
2023-04-01T21:51:48.309Z,8.60
2023-04-01T21:54:21.584Z,8.60
2023-04-01T21:56:48.966Z,8.60
2023-04-01T21:59:22.457Z,8.60
2023-04-01T22:01:49.781Z,8.60
2023-04-01T22:04:26.145Z,8.60
2023-04-01T22:06:57.869Z,8.50
2023-04-01T22:09:28.736Z,8.50
2023-04-01T22:11:56.043Z,8.50
2023-04-01T22:14:32.531Z,8.50
2023-04-01T22:17:04.278Z,8.50
2023-04-01T22:19:51.873Z,8.50
2023-04-01T22:22:32.279Z,8.50
2023-04-01T22:24:59.513Z,8.40
2023-04-01T22:27:46.687Z,8.40
2023-04-01T22:30:34.257Z,8.40
2023-04-01T22:33:01.799Z,8.40
2023-04-01T22:35:34.819Z,8.40
2023-04-01T22:38:32.387Z,8.40
2023-04-01T22:41:04.687Z,8.40
2023-04-01T22:43:42.685Z,8.40
2023-04-01T22:46:28.815Z,8.40
2023-04-01T22:49:02.706Z,8.40
2023-04-01T22:51:42.899Z,8.40
2023-04-01T22:54:13.250Z,8.40
2023-04-01T22:56:43.754Z,8.40
2023-04-01T22:59:20.121Z,8.40
2023-04-01T23:01:52.104Z,8.30
2023-04-01T23:04:22.824Z,8.30
2023-04-01T23:06:52.685Z,8.40
2023-04-01T23:09:30.571Z,8.40
2023-04-01T23:12:04.080Z,8.40
2023-04-01T23:14:41.857Z,8.40
2023-04-01T23:17:17.308Z,8.30
2023-04-01T23:20:06.873Z,8.30
2023-04-01T23:22:45.066Z,8.30
2023-04-01T23:25:21.531Z,8.30
2023-04-01T23:27:54.803Z,8.30
2023-04-01T23:30:40.463Z,8.20
2023-04-01T23:33:30.778Z,8.20
2023-04-01T23:36:12.646Z,8.20
2023-04-01T23:38:42.689Z,8.20
2023-04-01T23:41:17.606Z,8.10
2023-04-01T23:43:46.180Z,8.10
2023-04-01T23:46:13.856Z,8.10
2023-04-01T23:48:42.299Z,8.10
2023-04-01T23:51:23.395Z,8.00
2023-04-01T23:53:57.708Z,8.00
2023-04-01T23:56:32.872Z,8.00
2023-04-01T23:59:00.353Z,8.00
